Abu Musa, Iran

5:24 PM IRST on February 13, 2016 (GMT +0330)
Abumusa | | Change Station
CLOSE
Current Station
Airport
Location: Abumusa Island / Abumusa,
Elevation: 23 ft
Nearby Weather Stations

Elev 23 ft 25.88 °N, 55.03 °E | Updated 54 minutes ago

Partly Cloudy
Partly Cloudy
73 °F
Feels Like 73 °F
N
5
Wind Variable Wind from West

Today
High -- | Low -- °F
--% Chance of Precip.
Yesterday
High -- | Low -- °F
Precip. -- in
Pressure 30.01 in
Visibility 4.3 miles
Clouds Few 2500 ft
Dew Point 55 °F
Humidity 53%
Rainfall 0.00 in
Snow Depth Not available.
6:27 AM 5:42 PM
Waxing Crescent, 31% visible
METAR OIBA 131300Z 27004KT 7000 FEW025 23/13 Q1016
Pressure 30.01 in
Visibility 4.3 miles
Clouds Few 2500 ft
Dew Point 55 °F
Humidity 53%
Rainfall 0.00 in
Snow Depth Not available.
6:27 AM 5:42 PM
Waxing Crescent, 31% visible
METAR OIBA 131300Z 27004KT 7000 FEW025 23/13 Q1016

10-Day Weather Forecast

No radar image for this location.
×

Almanac

Astronomy

Feb. 13, 2016 Rise Set
Actual Time
Civil Twilight
Nautical Twilight
Astronomical Twilight
Moon
Length of Visible Light
Length of Day
Tomorrow will be .
, % of the Moon is Illuminated

Today's Extremes

Country Highs Country Lows

Community

WunderPhotos

Upload Photos

1,892,547 photos uploaded!

WunderBlog® & News

Nearby

Air Quality

  Air Quality AQ Index Pollutant
Not available.

Snow Depth

Station Depth Elevation

Earthquake Activity

City Distance Mag. Time & Date
Minimum magnitude displayed is 2.5.

Coastal Water Temperatures

Place Temperature

Stations

Nearby Weather Stations

Station Location Temp. Windchill Dew Point Humidity Wind Precip. Elev Updated Type